Terminal Aerodrome Forecast
Issued by NWS Corpus Christi, TX

Home | Current Version | Previous Version | Text Only | Print | Product List | Glossary On
Versions: 1 2 3 4 5 6 7 8 9 10 11 12 13 14 15 16
000
FTUS44 KCRP 202333
TAFVCT
TAF
KVCT 202333Z 2100/2124 14007KT P6SM SCT250
     FM210300 16008KT P6SM SCT012 BKN200
     FM210800 16004KT 3SM BR BKN009 OVC150
      TEMPO 2110/2113 1/2SM FG OVC006
     FM211500 16007KT P6SM VCSH BKN015 OVC025
     FM212000 15012G18KT P6SM VCTS BKN035CB OVC150 PROB30 2120/2123
      5SM -TSRA OVC030CB=

USA.gov is the U.S. government's official web portal to all federal, state and local government web resources and services.